sensor_id;sensor_type;location;lat;lon;timestamp;temperature;humidity
19256;DHT22;9762;52.490;13.410;2023-07-31T00:44:18;21.20;99.90
19256;DHT22;9762;52.490;13.410;2023-07-31T00:46:44;21.30;99.90
19256;DHT22;9762;52.490;13.410;2023-07-31T00:54:03;21.10;99.90
19256;DHT22;9762;52.490;13.410;2023-07-31T00:56:29;21.20;96.30
19256;DHT22;9762;52.490;13.410;2023-07-31T00:58:55;21.20;97.00
19256;DHT22;9762;52.490;13.410;2023-07-31T01:01:21;21.20;98.50
19256;DHT22;9762;52.490;13.410;2023-07-31T01:03:48;21.20;99.90
19256;DHT22;9762;52.490;13.410;2023-07-31T01:09:02;21.20;99.10
19256;DHT22;9762;52.490;13.410;2023-07-31T01:11:30;21.20;99.90
19256;DHT22;9762;52.490;13.410;2023-07-31T01:13:57;21.20;99.90
19256;DHT22;9762;52.490;13.410;2023-07-31T01:26:41;21.20;98.90
19256;DHT22;9762;52.490;13.410;2023-07-31T01:32:03;21.60;99.70
19256;DHT22;9762;52.490;13.410;2023-07-31T01:34:31;21.20;98.80
19256;DHT22;9762;52.490;13.410;2023-07-31T01:36:57;21.20;99.10
19256;DHT22;9762;52.490;13.410;2023-07-31T01:39:23;21.20;99.90
19256;DHT22;9762;52.490;13.410;2023-07-31T01:41:49;21.20;99.90
19256;DHT22;9762;52.490;13.410;2023-07-31T01:44:15;21.20;99.90
19256;DHT22;9762;52.490;13.410;2023-07-31T01:46:40;21.20;99.90
19256;DHT22;9762;52.490;13.410;2023-07-31T01:49:06;21.20;99.90
19256;DHT22;9762;52.490;13.410;2023-07-31T01:51:32;21.20;99.90
19256;DHT22;9762;52.490;13.410;2023-07-31T01:54:01;21.20;99.90
19256;DHT22;9762;52.490;13.410;2023-07-31T01:56:27;21.20;98.40
19256;DHT22;9762;52.490;13.410;2023-07-31T01:58:52;21.20;97.80
19256;DHT22;9762;52.490;13.410;2023-07-31T02:01:18;21.20;97.70
19256;DHT22;9762;52.490;13.410;2023-07-31T02:03:44;21.20;97.60
19256;DHT22;9762;52.490;13.410;2023-07-31T02:06:09;21.20;97.70
19256;DHT22;9762;52.490;13.410;2023-07-31T02:08:35;21.20;97.80
19256;DHT22;9762;52.490;13.410;2023-07-31T02:11:01;21.20;97.80
19256;DHT22;9762;52.490;13.410;2023-07-31T02:13:26;21.20;97.90
19256;DHT22;9762;52.490;13.410;2023-07-31T02:15:52;21.20;98.00
19256;DHT22;9762;52.490;13.410;2023-07-31T02:18:17;21.20;98.10
19256;DHT22;9762;52.490;13.410;2023-07-31T02:20:43;21.30;98.70
19256;DHT22;9762;52.490;13.410;2023-07-31T02:23:11;21.30;99.90
19256;DHT22;9762;52.490;13.410;2023-07-31T02:25:37;21.30;99.90
19256;DHT22;9762;52.490;13.410;2023-07-31T02:28:02;21.30;99.90
19256;DHT22;9762;52.490;13.410;2023-07-31T02:30:28;21.20;99.20
19256;DHT22;9762;52.490;13.410;2023-07-31T02:32:54;21.20;99.90
19256;DHT22;9762;52.490;13.410;2023-07-31T02:35:19;21.20;99.90
19256;DHT22;9762;52.490;13.410;2023-07-31T02:37:45;21.20;94.70
19256;DHT22;9762;52.490;13.410;2023-07-31T02:40:11;21.30;94.40
19256;DHT22;9762;52.490;13.410;2023-07-31T02:42:36;21.30;94.30
19256;DHT22;9762;52.490;13.410;2023-07-31T02:45:02;21.30;94.00
19256;DHT22;9762;52.490;13.410;2023-07-31T02:47:28;21.30;94.00
19256;DHT22;9762;52.490;13.410;2023-07-31T02:49:53;21.30;94.10
19256;DHT22;9762;52.490;13.410;2023-07-31T02:52:19;21.70;94.20
19256;DHT22;9762;52.490;13.410;2023-07-31T02:54:45;21.30;93.90
19256;DHT22;9762;52.490;13.410;2023-07-31T02:57:10;21.30;94.00
19256;DHT22;9762;52.490;13.410;2023-07-31T02:59:36;21.30;94.10
19256;DHT22;9762;52.490;13.410;2023-07-31T03:02:02;21.30;94.20
19256;DHT22;9762;52.490;13.410;2023-07-31T03:04:27;21.30;94.30
19256;DHT22;9762;52.490;13.410;2023-07-31T03:06:53;21.30;94.30
19256;DHT22;9762;52.490;13.410;2023-07-31T03:09:19;21.30;94.30
19256;DHT22;9762;52.490;13.410;2023-07-31T03:11:44;21.30;94.30
19256;DHT22;9762;52.490;13.410;2023-07-31T03:14:10;21.20;94.40
19256;DHT22;9762;52.490;13.410;2023-07-31T03:16:35;21.20;94.40
19256;DHT22;9762;52.490;13.410;2023-07-31T03:19:01;21.30;94.50
19256;DHT22;9762;52.490;13.410;2023-07-31T03:21:26;21.30;94.60
19256;DHT22;9762;52.490;13.410;2023-07-31T03:23:52;21.30;94.60
19256;DHT22;9762;52.490;13.410;2023-07-31T03:26:18;21.30;94.70
19256;DHT22;9762;52.490;13.410;2023-07-31T03:28:43;21.30;94.70
19256;DHT22;9762;52.490;13.410;2023-07-31T03:31:09;21.20;94.80
19256;DHT22;9762;52.490;13.410;2023-07-31T03:33:34;21.20;94.90
19256;DHT22;9762;52.490;13.410;2023-07-31T03:36:00;21.20;94.80
19256;DHT22;9762;52.490;13.410;2023-07-31T03:38:27;21.30;95.00
19256;DHT22;9762;52.490;13.410;2023-07-31T03:40:52;21.30;95.00
19256;DHT22;9762;52.490;13.410;2023-07-31T03:43:18;21.30;95.20
19256;DHT22;9762;52.490;13.410;2023-07-31T03:45:43;21.20;95.40
19256;DHT22;9762;52.490;13.410;2023-07-31T03:48:09;21.20;95.40
19256;DHT22;9762;52.490;13.410;2023-07-31T03:50:35;21.20;95.50
19256;DHT22;9762;52.490;13.410;2023-07-31T03:53:00;21.20;95.70
19256;DHT22;9762;52.490;13.410;2023-07-31T03:55:26;21.20;96.10
19256;DHT22;9762;52.490;13.410;2023-07-31T03:57:52;21.20;96.20
19256;DHT22;9762;52.490;13.410;2023-07-31T04:00:17;21.10;96.80
19256;DHT22;9762;52.490;13.410;2023-07-31T04:02:43;21.10;97.00
19256;DHT22;9762;52.490;13.410;2023-07-31T04:05:08;21.10;96.80
19256;DHT22;9762;52.490;13.410;2023-07-31T04:07:34;21.10;94.90
19256;DHT22;9762;52.490;13.410;2023-07-31T04:10:00;21.10;95.20
19256;DHT22;9762;52.490;13.410;2023-07-31T04:12:26;21.10;95.10
19256;DHT22;9762;52.490;13.410;2023-07-31T04:14:52;21.10;95.20
19256;DHT22;9762;52.490;13.410;2023-07-31T04:17:18;21.10;95.10
19256;DHT22;9762;52.490;13.410;2023-07-31T04:19:43;21.10;95.10
19256;DHT22;9762;52.490;13.410;2023-07-31T04:22:09;21.10;95.20
19256;DHT22;9762;52.490;13.410;2023-07-31T04:24:35;21.10;95.10
19256;DHT22;9762;52.490;13.410;2023-07-31T04:27:00;21.10;95.30
19256;DHT22;9762;52.490;13.410;2023-07-31T04:29:26;21.10;95.20
19256;DHT22;9762;52.490;13.410;2023-07-31T04:31:52;21.10;95.10
19256;DHT22;9762;52.490;13.410;2023-07-31T04:34:17;21.10;95.30
19256;DHT22;9762;52.490;13.410;2023-07-31T04:36:43;21.20;95.20
19256;DHT22;9762;52.490;13.410;2023-07-31T04:39:08;21.20;95.30
19256;DHT22;9762;52.490;13.410;2023-07-31T04:41:34;21.20;95.20
19256;DHT22;9762;52.490;13.410;2023-07-31T04:44:00;21.30;95.10
19256;DHT22;9762;52.490;13.410;2023-07-31T04:46:26;21.30;95.00
19256;DHT22;9762;52.490;13.410;2023-07-31T04:48:51;21.40;94.90
19256;DHT22;9762;52.490;13.410;2023-07-31T04:51:17;21.50;94.80
19256;DHT22;9762;52.490;13.410;2023-07-31T04:53:42;21.50;94.60
19256;DHT22;9762;52.490;13.410;2023-07-31T04:56:08;21.60;94.60
19256;DHT22;9762;52.490;13.410;2023-07-31T04:58:34;21.70;94.60
19256;DHT22;9762;52.490;13.410;2023-07-31T05:00:59;21.70;94.60
19256;DHT22;9762;52.490;13.410;2023-07-31T05:03:25;21.70;94.50
19256;DHT22;9762;52.490;13.410;2023-07-31T05:05:50;21.80;94.40
19256;DHT22;9762;52.490;13.410;2023-07-31T05:08:16;21.70;94.40
19256;DHT22;9762;52.490;13.410;2023-07-31T05:10:43;21.80;94.40
19256;DHT22;9762;52.490;13.410;2023-07-31T05:13:09;21.80;94.40
19256;DHT22;9762;52.490;13.410;2023-07-31T05:15:34;21.90;94.50
19256;DHT22;9762;52.490;13.410;2023-07-31T05:18:00;21.90;94.40
19256;DHT22;9762;52.490;13.410;2023-07-31T05:20:26;21.90;94.40
19256;DHT22;9762;52.490;13.410;2023-07-31T05:22:53;21.90;94.20
19256;DHT22;9762;52.490;13.410;2023-07-31T05:25:18;22.00;94.30
19256;DHT22;9762;52.490;13.410;2023-07-31T05:27:44;22.00;94.20
19256;DHT22;9762;52.490;13.410;2023-07-31T05:30:10;22.10;94.20
19256;DHT22;9762;52.490;13.410;2023-07-31T05:32:35;22.10;94.20
19256;DHT22;9762;52.490;13.410;2023-07-31T05:35:01;22.00;94.30
19256;DHT22;9762;52.490;13.410;2023-07-31T05:37:26;22.00;94.40
19256;DHT22;9762;52.490;13.410;2023-07-31T05:39:52;22.00;94.40
19256;DHT22;9762;52.490;13.410;2023-07-31T05:42:18;22.00;94.40
19256;DHT22;9762;52.490;13.410;2023-07-31T05:44:43;22.00;94.30
19256;DHT22;9762;52.490;13.410;2023-07-31T05:47:09;22.00;94.40
19256;DHT22;9762;52.490;13.410;2023-07-31T05:49:35;22.10;94.40
19256;DHT22;9762;52.490;13.410;2023-07-31T05:52:00;22.00;94.70
19256;DHT22;9762;52.490;13.410;2023-07-31T05:54:26;22.00;94.70
19256;DHT22;9762;52.490;13.410;2023-07-31T05:56:52;22.00;94.80
19256;DHT22;9762;52.490;13.410;2023-07-31T05:59:17;22.00;94.70
19256;DHT22;9762;52.490;13.410;2023-07-31T06:01:43;22.00;94.80
19256;DHT22;9762;52.490;13.410;2023-07-31T06:04:09;22.00;94.70
19256;DHT22;9762;52.490;13.410;2023-07-31T06:06:34;22.00;94.90
19256;DHT22;9762;52.490;13.410;2023-07-31T06:09:00;22.00;95.20
19256;DHT22;9762;52.490;13.410;2023-07-31T06:11:26;22.00;95.10
19256;DHT22;9762;52.490;13.410;2023-07-31T06:13:51;22.00;95.20
19256;DHT22;9762;52.490;13.410;2023-07-31T06:16:17;22.00;95.30
19256;DHT22;9762;52.490;13.410;2023-07-31T06:18:43;22.00;95.20
19256;DHT22;9762;52.490;13.410;2023-07-31T06:21:10;22.10;95.20
19256;DHT22;9762;52.490;13.410;2023-07-31T06:23:36;22.10;95.10
19256;DHT22;9762;52.490;13.410;2023-07-31T06:26:02;22.10;95.30
19256;DHT22;9762;52.490;13.410;2023-07-31T06:28:31;22.00;95.30
19256;DHT22;9762;52.490;13.410;2023-07-31T06:30:58;22.00;95.10
19256;DHT22;9762;52.490;13.410;2023-07-31T06:33:24;22.00;95.30
19256;DHT22;9762;52.490;13.410;2023-07-31T06:35:50;22.00;95.40
19256;DHT22;9762;52.490;13.410;2023-07-31T06:38:18;22.00;95.50
19256;DHT22;9762;52.490;13.410;2023-07-31T06:40:43;22.10;95.70
19256;DHT22;9762;52.490;13.410;2023-07-31T06:43:09;22.10;95.60
19256;DHT22;9762;52.490;13.410;2023-07-31T06:45:35;22.10;95.60
19256;DHT22;9762;52.490;13.410;2023-07-31T06:48:02;22.10;95.60
19256;DHT22;9762;52.490;13.410;2023-07-31T06:50:32;22.10;95.60
19256;DHT22;9762;52.490;13.410;2023-07-31T06:52:58;22.00;95.70
19256;DHT22;9762;52.490;13.410;2023-07-31T06:55:24;22.10;95.50
19256;DHT22;9762;52.490;13.410;2023-07-31T06:57:52;22.10;95.40
19256;DHT22;9762;52.490;13.410;2023-07-31T07:00:19;22.00;95.50
19256;DHT22;9762;52.490;13.410;2023-07-31T07:02:45;22.00;95.40
19256;DHT22;9762;52.490;13.410;2023-07-31T07:05:14;22.00;95.80
19256;DHT22;9762;52.490;13.410;2023-07-31T07:07:40;21.90;96.00
19256;DHT22;9762;52.490;13.410;2023-07-31T07:10:07;21.90;95.90
19256;DHT22;9762;52.490;13.410;2023-07-31T07:12:33;21.80;96.20
19256;DHT22;9762;52.490;13.410;2023-07-31T07:14:59;21.80;96.30
19256;DHT22;9762;52.490;13.410;2023-07-31T07:17:29;21.80;96.00
19256;DHT22;9762;52.490;13.410;2023-07-31T07:19:58;21.80;95.90
19256;DHT22;9762;52.490;13.410;2023-07-31T07:22:24;21.80;96.10
19256;DHT22;9762;52.490;13.410;2023-07-31T07:24:50;21.70;96.60
19256;DHT22;9762;52.490;13.410;2023-07-31T07:27:16;21.70;96.70
19256;DHT22;9762;52.490;13.410;2023-07-31T07:29:41;21.90;97.10
19256;DHT22;9762;52.490;13.410;2023-07-31T07:32:07;21.70;96.90
19256;DHT22;9762;52.490;13.410;2023-07-31T07:34:33;21.70;97.20
19256;DHT22;9762;52.490;13.410;2023-07-31T07:36:58;21.80;96.90
19256;DHT22;9762;52.490;13.410;2023-07-31T07:39:24;21.70;96.80
19256;DHT22;9762;52.490;13.410;2023-07-31T07:41:50;21.80;96.80
19256;DHT22;9762;52.490;13.410;2023-07-31T07:44:16;21.80;97.00
19256;DHT22;9762;52.490;13.410;2023-07-31T07:46:41;21.90;97.00
19256;DHT22;9762;52.490;13.410;2023-07-31T07:49:07;22.00;97.00
19256;DHT22;9762;52.490;13.410;2023-07-31T07:51:33;22.00;96.80
19256;DHT22;9762;52.490;13.410;2023-07-31T07:53:59;22.00;96.80
19256;DHT22;9762;52.490;13.410;2023-07-31T07:56:27;22.10;96.80
19256;DHT22;9762;52.490;13.410;2023-07-31T07:58:54;22.10;96.60
19256;DHT22;9762;52.490;13.410;2023-07-31T08:01:20;22.10;96.60
19256;DHT22;9762;52.490;13.410;2023-07-31T08:03:46;22.10;96.80
19256;DHT22;9762;52.490;13.410;2023-07-31T08:06:12;22.20;97.00
19256;DHT22;9762;52.490;13.410;2023-07-31T08:08:38;22.10;97.20
19256;DHT22;9762;52.490;13.410;2023-07-31T08:11:04;22.10;97.10
19256;DHT22;9762;52.490;13.410;2023-07-31T08:13:30;22.20;97.20
19256;DHT22;9762;52.490;13.410;2023-07-31T08:15:55;22.20;96.80
19256;DHT22;9762;52.490;13.410;2023-07-31T08:18:21;22.20;96.90
19256;DHT22;9762;52.490;13.410;2023-07-31T08:20:47;22.30;97.20
19256;DHT22;9762;52.490;13.410;2023-07-31T08:23:12;22.30;97.10
19256;DHT22;9762;52.490;13.410;2023-07-31T08:25:38;22.20;97.50
19256;DHT22;9762;52.490;13.410;2023-07-31T08:28:05;22.10;97.50
19256;DHT22;9762;52.490;13.410;2023-07-31T08:30:31;22.10;97.50
19256;DHT22;9762;52.490;13.410;2023-07-31T08:32:58;22.10;97.90
19256;DHT22;9762;52.490;13.410;2023-07-31T08:35:25;22.10;97.80
19256;DHT22;9762;52.490;13.410;2023-07-31T08:37:51;22.10;97.80
19256;DHT22;9762;52.490;13.410;2023-07-31T08:40:17;22.10;96.80
19256;DHT22;9762;52.490;13.410;2023-07-31T08:42:46;22.10;96.40
19256;DHT22;9762;52.490;13.410;2023-07-31T08:45:16;22.20;96.40
19256;DHT22;9762;52.490;13.410;2023-07-31T08:47:45;22.20;96.50
19256;DHT22;9762;52.490;13.410;2023-07-31T08:50:16;22.20;96.60
19256;DHT22;9762;52.490;13.410;2023-07-31T08:52:42;22.30;96.50
19256;DHT22;9762;52.490;13.410;2023-07-31T08:55:08;22.30;96.40
19256;DHT22;9762;52.490;13.410;2023-07-31T08:57:37;22.30;96.10
19256;DHT22;9762;52.490;13.410;2023-07-31T09:00:04;22.30;95.70
19256;DHT22;9762;52.490;13.410;2023-07-31T09:05:11;22.40;95.80
19256;DHT22;9762;52.490;13.410;2023-07-31T09:07:37;22.40;95.70
19256;DHT22;9762;52.490;13.410;2023-07-31T09:10:04;22.30;95.90
19256;DHT22;9762;52.490;13.410;2023-07-31T09:12:30;22.40;95.80
19256;DHT22;9762;52.490;13.410;2023-07-31T09:14:59;22.40;96.00
19256;DHT22;9762;52.490;13.410;2023-07-31T09:17:33;22.50;95.90
19256;DHT22;9762;52.490;13.410;2023-07-31T09:20:13;22.50;96.00
19256;DHT22;9762;52.490;13.410;2023-07-31T09:22:40;22.50;95.70
19256;DHT22;9762;52.490;13.410;2023-07-31T09:25:24;22.50;95.30
19256;DHT22;9762;52.490;13.410;2023-07-31T09:27:54;22.60;95.40
19256;DHT22;9762;52.490;13.410;2023-07-31T09:30:21;22.60;95.20
19256;DHT22;9762;52.490;13.410;2023-07-31T09:32:49;22.60;95.30
19256;DHT22;9762;52.490;13.410;2023-07-31T09:37:56;22.60;95.40
19256;DHT22;9762;52.490;13.410;2023-07-31T09:40:43;22.60;95.30
19256;DHT22;9762;52.490;13.410;2023-07-31T09:43:19;22.50;95.50
19256;DHT22;9762;52.490;13.410;2023-07-31T09:45:46;22.50;95.40
19256;DHT22;9762;52.490;13.410;2023-07-31T09:48:16;22.50;95.30
19256;DHT22;9762;52.490;13.410;2023-07-31T09:50:45;22.50;95.20
19256;DHT22;9762;52.490;13.410;2023-07-31T09:53:11;22.50;95.20
19256;DHT22;9762;52.490;13.410;2023-07-31T09:55:38;22.40;95.40
19256;DHT22;9762;52.490;13.410;2023-07-31T09:58:06;22.40;95.80
19256;DHT22;9762;52.490;13.410;2023-07-31T10:00:33;22.40;95.40
19256;DHT22;9762;52.490;13.410;2023-07-31T10:03:00;22.30;95.50
19256;DHT22;9762;52.490;13.410;2023-07-31T10:05:52;22.40;95.60
19256;DHT22;9762;52.490;13.410;2023-07-31T10:08:18;22.40;95.90
19256;DHT22;9762;52.490;13.410;2023-07-31T10:10:46;22.40;96.00
19256;DHT22;9762;52.490;13.410;2023-07-31T10:13:12;22.40;96.30
19256;DHT22;9762;52.490;13.410;2023-07-31T10:15:38;22.50;95.90
19256;DHT22;9762;52.490;13.410;2023-07-31T10:18:06;22.50;95.80
19256;DHT22;9762;52.490;13.410;2023-07-31T10:20:32;22.50;96.30
19256;DHT22;9762;52.490;13.410;2023-07-31T10:22:58;22.50;95.70
19256;DHT22;9762;52.490;13.410;2023-07-31T10:25:26;22.50;95.60
19256;DHT22;9762;52.490;13.410;2023-07-31T10:27:52;22.50;95.70
19256;DHT22;9762;52.490;13.410;2023-07-31T10:30:21;22.60;95.80
19256;DHT22;9762;52.490;13.410;2023-07-31T10:32:48;22.60;95.70
19256;DHT22;9762;52.490;13.410;2023-07-31T10:35:16;22.70;96.20
19256;DHT22;9762;52.490;13.410;2023-07-31T10:37:43;22.70;96.10
19256;DHT22;9762;52.490;13.410;2023-07-31T10:40:13;22.70;96.00
19256;DHT22;9762;52.490;13.410;2023-07-31T10:42:57;22.80;95.80
19256;DHT22;9762;52.490;13.410;2023-07-31T10:45:37;22.80;96.00
19256;DHT22;9762;52.490;13.410;2023-07-31T10:48:04;22.80;95.90
19256;DHT22;9762;52.490;13.410;2023-07-31T10:50:38;22.90;95.90
19256;DHT22;9762;52.490;13.410;2023-07-31T10:55:38;23.20;97.10
19256;DHT22;9762;52.490;13.410;2023-07-31T11:00:38;23.50;97.30
19256;DHT22;9762;52.490;13.410;2023-07-31T11:08:26;23.90;96.30
19256;DHT22;9762;52.490;13.410;2023-07-31T11:16:15;24.30;93.50
19256;DHT22;9762;52.490;13.410;2023-07-31T11:18:42;24.30;92.00
19256;DHT22;9762;52.490;13.410;2023-07-31T11:21:12;24.40;91.90
19256;DHT22;9762;52.490;13.410;2023-07-31T11:23:38;24.40;90.90
19256;DHT22;9762;52.490;13.410;2023-07-31T11:26:06;24.50;90.40
19256;DHT22;9762;52.490;13.410;2023-07-31T11:28:33;24.50;90.30
19256;DHT22;9762;52.490;13.410;2023-07-31T11:31:00;24.60;90.10
19256;DHT22;9762;52.490;13.410;2023-07-31T11:33:25;24.50;90.20
19256;DHT22;9762;52.490;13.410;2023-07-31T11:35:51;24.50;90.00
19256;DHT22;9762;52.490;13.410;2023-07-31T11:38:26;24.50;89.30
19256;DHT22;9762;52.490;13.410;2023-07-31T11:40:53;24.60;88.80
19256;DHT22;9762;52.490;13.410;2023-07-31T11:43:20;24.60;87.60
19256;DHT22;9762;52.490;13.410;2023-07-31T11:45:51;24.50;87.70
19256;DHT22;9762;52.490;13.410;2023-07-31T11:50:50;24.40;87.80
19256;DHT22;9762;52.490;13.410;2023-07-31T11:53:19;24.40;87.60
19256;DHT22;9762;52.490;13.410;2023-07-31T11:55:47;24.30;87.20
19256;DHT22;9762;52.490;13.410;2023-07-31T11:58:13;24.40;87.60
19256;DHT22;9762;52.490;13.410;2023-07-31T12:00:40;24.30;88.00
19256;DHT22;9762;52.490;13.410;2023-07-31T12:03:06;24.30;87.20
19256;DHT22;9762;52.490;13.410;2023-07-31T12:05:32;24.20;87.20
19256;DHT22;9762;52.490;13.410;2023-07-31T12:07:58;24.20;87.60
19256;DHT22;9762;52.490;13.410;2023-07-31T12:10:29;24.20;87.70
19256;DHT22;9762;52.490;13.410;2023-07-31T12:13:06;24.20;88.90
19256;DHT22;9762;52.490;13.410;2023-07-31T12:15:32;24.20;87.90
19256;DHT22;9762;52.490;13.410;2023-07-31T12:17:58;24.20;88.30
19256;DHT22;9762;52.490;13.410;2023-07-31T12:20:24;24.20;88.00
19256;DHT22;9762;52.490;13.410;2023-07-31T12:22:50;24.20;87.60
19256;DHT22;9762;52.490;13.410;2023-07-31T12:25:15;24.10;87.50
19256;DHT22;9762;52.490;13.410;2023-07-31T12:27:44;24.20;87.40
19256;DHT22;9762;52.490;13.410;2023-07-31T12:30:31;24.20;87.30
19256;DHT22;9762;52.490;13.410;2023-07-31T12:32:57;24.20;86.60
19256;DHT22;9762;52.490;13.410;2023-07-31T12:35:23;24.20;85.90
19256;DHT22;9762;52.490;13.410;2023-07-31T12:37:48;24.30;85.80
19256;DHT22;9762;52.490;13.410;2023-07-31T12:40:14;24.30;85.50
19256;DHT22;9762;52.490;13.410;2023-07-31T12:42:41;24.40;85.70
19256;DHT22;9762;52.490;13.410;2023-07-31T12:45:07;24.40;86.00
19256;DHT22;9762;52.490;13.410;2023-07-31T12:47:33;24.40;86.70
19256;DHT22;9762;52.490;13.410;2023-07-31T12:49:58;24.30;87.60
19256;DHT22;9762;52.490;13.410;2023-07-31T12:52:24;24.50;87.60
19256;DHT22;9762;52.490;13.410;2023-07-31T12:54:50;24.50;87.10
19256;DHT22;9762;52.490;13.410;2023-07-31T12:57:15;24.50;86.10
19256;DHT22;9762;52.490;13.410;2023-07-31T12:59:41;24.60;86.70
19256;DHT22;9762;52.490;13.410;2023-07-31T13:02:06;24.60;86.30
19256;DHT22;9762;52.490;13.410;2023-07-31T13:04:32;24.60;85.90
19256;DHT22;9762;52.490;13.410;2023-07-31T13:06:58;24.60;86.10
19256;DHT22;9762;52.490;13.410;2023-07-31T13:09:23;24.60;85.60
19256;DHT22;9762;52.490;13.410;2023-07-31T13:11:49;24.60;85.70
19256;DHT22;9762;52.490;13.410;2023-07-31T13:14:14;24.50;85.60
19256;DHT22;9762;52.490;13.410;2023-07-31T13:16:40;24.50;85.40
19256;DHT22;9762;52.490;13.410;2023-07-31T13:19:06;24.40;85.80
19256;DHT22;9762;52.490;13.410;2023-07-31T13:21:31;24.50;85.70
19256;DHT22;9762;52.490;13.410;2023-07-31T13:23:57;24.40;85.90
19256;DHT22;9762;52.490;13.410;2023-07-31T13:26:24;24.40;85.80
19256;DHT22;9762;52.490;13.410;2023-07-31T13:28:50;24.40;86.20
19256;DHT22;9762;52.490;13.410;2023-07-31T13:31:15;24.30;86.80
19256;DHT22;9762;52.490;13.410;2023-07-31T13:33:41;24.30;87.20
19256;DHT22;9762;52.490;13.410;2023-07-31T13:36:07;24.30;87.30
19256;DHT22;9762;52.490;13.410;2023-07-31T13:38:32;24.30;87.30
19256;DHT22;9762;52.490;13.410;2023-07-31T13:40:58;24.30;87.20
19256;DHT22;9762;52.490;13.410;2023-07-31T13:43:24;24.40;87.20
19256;DHT22;9762;52.490;13.410;2023-07-31T13:45:49;24.30;87.40
19256;DHT22;9762;52.490;13.410;2023-07-31T13:48:15;24.40;87.10
19256;DHT22;9762;52.490;13.410;2023-07-31T13:50:41;24.60;87.40
19256;DHT22;9762;52.490;13.410;2023-07-31T13:53:06;24.60;87.00
19256;DHT22;9762;52.490;13.410;2023-07-31T13:55:32;24.70;87.20
19256;DHT22;9762;52.490;13.410;2023-07-31T13:57:57;24.60;86.90
19256;DHT22;9762;52.490;13.410;2023-07-31T14:00:23;24.70;86.60
19256;DHT22;9762;52.490;13.410;2023-07-31T14:02:48;24.70;86.60
19256;DHT22;9762;52.490;13.410;2023-07-31T14:05:14;24.70;86.40
19256;DHT22;9762;52.490;13.410;2023-07-31T14:07:40;24.70;85.60
19256;DHT22;9762;52.490;13.410;2023-07-31T14:10:05;24.80;85.60
19256;DHT22;9762;52.490;13.410;2023-07-31T14:12:31;24.90;85.60
19256;DHT22;9762;52.490;13.410;2023-07-31T14:14:57;24.90;85.50
19256;DHT22;9762;52.490;13.410;2023-07-31T14:17:22;25.00;85.40
19256;DHT22;9762;52.490;13.410;2023-07-31T14:19:48;25.00;85.20
19256;DHT22;9762;52.490;13.410;2023-07-31T14:22:13;25.10;85.20
19256;DHT22;9762;52.490;13.410;2023-07-31T14:24:39;25.10;84.90
19256;DHT22;9762;52.490;13.410;2023-07-31T14:27:05;25.10;84.70
19256;DHT22;9762;52.490;13.410;2023-07-31T14:29:30;25.10;84.30
19256;DHT22;9762;52.490;13.410;2023-07-31T14:31:56;25.10;84.20
19256;DHT22;9762;52.490;13.410;2023-07-31T14:34:22;25.10;84.00
19256;DHT22;9762;52.490;13.410;2023-07-31T14:36:47;25.10;83.90
19256;DHT22;9762;52.490;13.410;2023-07-31T14:39:13;25.10;83.70
19256;DHT22;9762;52.490;13.410;2023-07-31T14:41:39;25.00;84.00
19256;DHT22;9762;52.490;13.410;2023-07-31T14:44:04;25.10;84.30
19256;DHT22;9762;52.490;13.410;2023-07-31T14:46:30;25.10;84.80
19256;DHT22;9762;52.490;13.410;2023-07-31T14:48:55;25.10;84.50
19256;DHT22;9762;52.490;13.410;2023-07-31T14:51:21;25.10;83.60
19256;DHT22;9762;52.490;13.410;2023-07-31T14:53:47;25.10;82.80
19256;DHT22;9762;52.490;13.410;2023-07-31T14:56:13;25.10;82.40
19256;DHT22;9762;52.490;13.410;2023-07-31T14:58:38;25.00;82.20
19256;DHT22;9762;52.490;13.410;2023-07-31T15:01:04;25.10;82.10
19256;DHT22;9762;52.490;13.410;2023-07-31T15:03:29;25.10;82.80
19256;DHT22;9762;52.490;13.410;2023-07-31T15:05:55;25.00;82.50
19256;DHT22;9762;52.490;13.410;2023-07-31T15:08:21;25.10;82.70
19256;DHT22;9762;52.490;13.410;2023-07-31T15:10:46;25.10;82.70
19256;DHT22;9762;52.490;13.410;2023-07-31T15:13:12;25.10;83.10
19256;DHT22;9762;52.490;13.410;2023-07-31T15:15:38;25.10;83.30
19256;DHT22;9762;52.490;13.410;2023-07-31T15:18:03;25.10;83.90
19256;DHT22;9762;52.490;13.410;2023-07-31T15:20:29;25.10;83.40
19256;DHT22;9762;52.490;13.410;2023-07-31T15:22:55;25.00;84.00
19256;DHT22;9762;52.490;13.410;2023-07-31T15:25:21;25.00;84.90
19256;DHT22;9762;52.490;13.410;2023-07-31T15:27:47;25.10;85.50
19256;DHT22;9762;52.490;13.410;2023-07-31T15:30:12;25.10;86.10
19256;DHT22;9762;52.490;13.410;2023-07-31T15:32:38;25.10;86.30
19256;DHT22;9762;52.490;13.410;2023-07-31T15:35:05;25.10;85.60
19256;DHT22;9762;52.490;13.410;2023-07-31T15:37:31;25.10;85.60
19256;DHT22;9762;52.490;13.410;2023-07-31T15:39:56;25.10;85.30
19256;DHT22;9762;52.490;13.410;2023-07-31T15:42:22;25.00;86.10
19256;DHT22;9762;52.490;13.410;2023-07-31T15:44:48;25.00;86.90
19256;DHT22;9762;52.490;13.410;2023-07-31T15:47:13;25.10;87.30
19256;DHT22;9762;52.490;13.410;2023-07-31T15:52:05;25.20;87.20
19256;DHT22;9762;52.490;13.410;2023-07-31T15:54:31;25.20;86.70
19256;DHT22;9762;52.490;13.410;2023-07-31T15:56:57;25.20;87.50
19256;DHT22;9762;52.490;13.410;2023-07-31T15:59:23;25.20;87.20
19256;DHT22;9762;52.490;13.410;2023-07-31T16:01:48;25.30;87.30
19256;DHT22;9762;52.490;13.410;2023-07-31T16:04:14;25.30;87.40
19256;DHT22;9762;52.490;13.410;2023-07-31T16:06:39;25.40;87.60
19256;DHT22;9762;52.490;13.410;2023-07-31T16:09:05;25.40;87.80
19256;DHT22;9762;52.490;13.410;2023-07-31T16:11:31;25.40;87.30
19256;DHT22;9762;52.490;13.410;2023-07-31T16:13:56;25.40;87.00
19256;DHT22;9762;52.490;13.410;2023-07-31T16:16:22;25.40;87.10
19256;DHT22;9762;52.490;13.410;2023-07-31T16:18:48;25.40;86.90
19256;DHT22;9762;52.490;13.410;2023-07-31T16:21:13;25.40;86.40
19256;DHT22;9762;52.490;13.410;2023-07-31T16:23:39;25.30;86.10
19256;DHT22;9762;52.490;13.410;2023-07-31T16:26:04;25.20;85.60
19256;DHT22;9762;52.490;13.410;2023-07-31T16:28:30;25.20;85.10
19256;DHT22;9762;52.490;13.410;2023-07-31T16:30:56;25.10;85.00
19256;DHT22;9762;52.490;13.410;2023-07-31T16:33:21;25.00;84.50
19256;DHT22;9762;52.490;13.410;2023-07-31T16:35:47;25.00;84.90
19256;DHT22;9762;52.490;13.410;2023-07-31T16:38:12;24.90;84.80
19256;DHT22;9762;52.490;13.410;2023-07-31T16:40:38;24.90;84.80
19256;DHT22;9762;52.490;13.410;2023-07-31T16:43:04;24.80;85.40
19256;DHT22;9762;52.490;13.410;2023-07-31T16:45:29;24.70;84.70
19256;DHT22;9762;52.490;13.410;2023-07-31T16:47:55;24.70;84.70
19256;DHT22;9762;52.490;13.410;2023-07-31T16:50:20;24.70;84.70
19256;DHT22;9762;52.490;13.410;2023-07-31T16:52:46;24.60;84.70
19256;DHT22;9762;52.490;13.410;2023-07-31T16:55:12;24.60;85.40